sensor_id;sensor_type;location;lat;lon;timestamp;pressure;altitude;pressure_sealevel;temperature;humidity
67842;BME280;54642;59.126;37.876;2023-03-22T00:01:15;99236.88;;;0.63;67.86
67842;BME280;54642;59.126;37.876;2023-03-22T00:03:42;99246.25;;;0.64;67.87
67842;BME280;54642;59.126;37.876;2023-03-22T00:06:09;99236.84;;;0.62;67.75
67842;BME280;54642;59.126;37.876;2023-03-22T00:08:35;99225.47;;;0.46;67.77
67842;BME280;54642;59.126;37.876;2023-03-22T00:11:02;99243.41;;;0.50;67.85
67842;BME280;54642;59.126;37.876;2023-03-22T00:13:28;99224.41;;;0.37;67.70
67842;BME280;54642;59.126;37.876;2023-03-22T00:15:55;99242.94;;;0.30;68.00
67842;BME280;54642;59.126;37.876;2023-03-22T00:18:22;99174.97;;;-0.09;67.78
67842;BME280;54642;59.126;37.876;2023-03-22T00:20:52;99180.19;;;-0.03;68.01
67842;BME280;54642;59.126;37.876;2023-03-22T00:23:19;99165.47;;;-0.14;67.97
67842;BME280;54642;59.126;37.876;2023-03-22T00:25:46;99229.19;;;0.22;67.83
67842;BME280;54642;59.126;37.876;2023-03-22T00:28:12;99240.38;;;0.30;67.90
67842;BME280;54642;59.126;37.876;2023-03-22T00:30:39;99219.75;;;0.18;67.86
67842;BME280;54642;59.126;37.876;2023-03-22T00:33:05;99243.84;;;0.32;67.84
67842;BME280;54642;59.126;37.876;2023-03-22T00:35:31;99243.91;;;0.35;67.74
67842;BME280;54642;59.126;37.876;2023-03-22T00:37:57;99249.88;;;0.36;67.65
67842;BME280;54642;59.126;37.876;2023-03-22T00:40:31;99249.78;;;0.31;67.54
67842;BME280;54642;59.126;37.876;2023-03-22T00:42:58;99222.97;;;0.11;67.52
67842;BME280;54642;59.126;37.876;2023-03-22T00:45:26;99255.56;;;0.24;67.61
67842;BME280;54642;59.126;37.876;2023-03-22T00:47:52;99265.06;;;0.31;67.53
67842;BME280;54642;59.126;37.876;2023-03-22T00:50:18;99198.63;;;-0.13;67.56
67842;BME280;54642;59.126;37.876;2023-03-22T00:52:44;99279.41;;;0.28;67.73
67842;BME280;54642;59.126;37.876;2023-03-22T00:55:10;99239.75;;;0.03;67.77
67842;BME280;54642;59.126;37.876;2023-03-22T00:57:35;99281.03;;;0.24;67.65
67842;BME280;54642;59.126;37.876;2023-03-22T01:00:04;99223.31;;;-0.10;67.68
67842;BME280;54642;59.126;37.876;2023-03-22T01:02:39;99226.69;;;-0.11;67.79
67842;BME280;54642;59.126;37.876;2023-03-22T01:05:10;99285.91;;;0.15;67.65
67842;BME280;54642;59.126;37.876;2023-03-22T01:07:44;99265.38;;;0.09;67.82
67842;BME280;54642;59.126;37.876;2023-03-22T01:10:10;99256.78;;;0.05;67.84
67842;BME280;54642;59.126;37.876;2023-03-22T01:12:37;99296.19;;;0.19;67.81
67842;BME280;54642;59.126;37.876;2023-03-22T01:15:06;99278.34;;;0.19;68.08
67842;BME280;54642;59.126;37.876;2023-03-22T01:17:32;99289.44;;;0.20;67.87
67842;BME280;54642;59.126;37.876;2023-03-22T01:19:58;99294.53;;;0.20;67.76
67842;BME280;54642;59.126;37.876;2023-03-22T01:22:23;99297.03;;;0.18;67.72
67842;BME280;54642;59.126;37.876;2023-03-22T01:24:50;99302.06;;;0.15;67.83
67842;BME280;54642;59.126;37.876;2023-03-22T01:27:16;99279.56;;;-0.01;68.03
67842;BME280;54642;59.126;37.876;2023-03-22T01:29:42;99308.75;;;0.12;68.13
67842;BME280;54642;59.126;37.876;2023-03-22T01:32:08;99308.75;;;0.12;68.02
67842;BME280;54642;59.126;37.876;2023-03-22T01:34:34;99309.44;;;0.05;68.03
67842;BME280;54642;59.126;37.876;2023-03-22T01:37:02;99250.75;;;-0.33;68.12
67842;BME280;54642;59.126;37.876;2023-03-22T01:39:28;99315.09;;;-0.06;68.21
67842;BME280;54642;59.126;37.876;2023-03-22T01:41:57;99314.53;;;0.05;68.25
67842;BME280;54642;59.126;37.876;2023-03-22T01:44:27;99310.81;;;-0.08;68.21
67842;BME280;54642;59.126;37.876;2023-03-22T01:46:54;99200.66;;;-0.68;68.45
67842;BME280;54642;59.126;37.876;2023-03-22T01:49:27;99330.75;;;0.08;68.16
67842;BME280;54642;59.126;37.876;2023-03-22T01:51:57;99332.41;;;0.06;68.12
67842;BME280;54642;59.126;37.876;2023-03-22T01:54:46;99327.94;;;-0.03;68.14
67842;BME280;54642;59.126;37.876;2023-03-22T01:57:25;99332.97;;;-0.04;68.32
67842;BME280;54642;59.126;37.876;2023-03-22T01:59:52;99328.81;;;-0.01;68.39
67842;BME280;54642;59.126;37.876;2023-03-22T02:02:36;99336.56;;;0.03;68.25
67842;BME280;54642;59.126;37.876;2023-03-22T02:05:15;99319.38;;;-0.05;68.26
67842;BME280;54642;59.126;37.876;2023-03-22T02:07:42;99220.97;;;-0.69;68.11
67842;BME280;54642;59.126;37.876;2023-03-22T02:10:14;99336.38;;;-0.04;68.38
67842;BME280;54642;59.126;37.876;2023-03-22T02:24:17;99358.34;;;-0.07;68.50
67842;BME280;54642;59.126;37.876;2023-03-22T02:29:46;99342.66;;;-0.24;68.53
67842;BME280;54642;59.126;37.876;2023-03-22T02:43:52;99377.59;;;-0.18;68.60
67842;BME280;54642;59.126;37.876;2023-03-22T02:46:55;99369.56;;;-0.32;68.65
67842;BME280;54642;59.126;37.876;2023-03-22T02:49:27;99324.66;;;-0.62;68.66
67842;BME280;54642;59.126;37.876;2023-03-22T02:52:00;99391.06;;;-0.23;68.99
67842;BME280;54642;59.126;37.876;2023-03-22T02:54:30;99391.13;;;-0.21;68.89
67842;BME280;54642;59.126;37.876;2023-03-22T02:57:07;99391.03;;;-0.24;68.77
67842;BME280;54642;59.126;37.876;2023-03-22T02:59:36;99347.00;;;-0.52;68.95
67842;BME280;54642;59.126;37.876;2023-03-22T03:02:04;99402.94;;;-0.23;68.86
67842;BME280;54642;59.126;37.876;2023-03-22T03:04:41;99380.59;;;-0.33;68.91
67842;BME280;54642;59.126;37.876;2023-03-22T03:07:11;99396.91;;;-0.25;69.06
67842;BME280;54642;59.126;37.876;2023-03-22T03:09:40;99364.13;;;-0.46;69.03
67842;BME280;54642;59.126;37.876;2023-03-22T03:12:17;99395.03;;;-0.32;68.96
67842;BME280;54642;59.126;37.876;2023-03-22T03:14:44;99398.53;;;-0.29;69.00
67842;BME280;54642;59.126;37.876;2023-03-22T03:22:34;99406.16;;;-0.29;69.25
67842;BME280;54642;59.126;37.876;2023-03-22T03:28:00;99391.31;;;-0.44;68.97
67842;BME280;54642;59.126;37.876;2023-03-22T03:30:44;99395.56;;;-0.44;68.92
67842;BME280;54642;59.126;37.876;2023-03-22T03:33:15;99408.50;;;-0.36;69.02
67842;BME280;54642;59.126;37.876;2023-03-22T03:35:55;99372.78;;;-0.68;69.21
67842;BME280;54642;59.126;37.876;2023-03-22T03:38:28;99341.06;;;-0.81;69.09
67842;BME280;54642;59.126;37.876;2023-03-22T03:41:07;99419.53;;;-0.36;69.13
67842;BME280;54642;59.126;37.876;2023-03-22T03:43:34;99438.28;;;-0.34;68.95
67842;BME280;54642;59.126;37.876;2023-03-22T03:46:02;99388.47;;;-0.54;69.21
67842;BME280;54642;59.126;37.876;2023-03-22T03:48:31;99421.88;;;-0.44;69.15
67842;BME280;54642;59.126;37.876;2023-03-22T03:51:00;99434.78;;;-0.37;69.00
67842;BME280;54642;59.126;37.876;2023-03-22T03:53:27;99453.47;;;-0.37;69.22
67842;BME280;54642;59.126;37.876;2023-03-22T03:55:53;99373.28;;;-0.82;69.11
67842;BME280;54642;59.126;37.876;2023-03-22T03:58:20;99437.13;;;-0.44;68.68
67842;BME280;54642;59.126;37.876;2023-03-22T04:00:49;99320.53;;;-1.16;68.92
67842;BME280;54642;59.126;37.876;2023-03-22T04:03:30;99428.50;;;-0.49;69.08
67842;BME280;54642;59.126;37.876;2023-03-22T04:06:05;99448.28;;;-0.40;69.04
67842;BME280;54642;59.126;37.876;2023-03-22T04:08:36;99432.63;;;-0.52;68.99
67842;BME280;54642;59.126;37.876;2023-03-22T04:11:02;99447.53;;;-0.37;68.79
67842;BME280;54642;59.126;37.876;2023-03-22T04:13:30;99457.72;;;-0.37;69.06
67842;BME280;54642;59.126;37.876;2023-03-22T04:15:59;99385.09;;;-0.84;68.49
67842;BME280;54642;59.126;37.876;2023-03-22T04:18:28;99397.97;;;-0.78;68.76
67842;BME280;54642;59.126;37.876;2023-03-22T04:20:55;99467.75;;;-0.42;68.74
67842;BME280;54642;59.126;37.876;2023-03-22T04:23:22;99463.59;;;-0.39;68.84
67842;BME280;54642;59.126;37.876;2023-03-22T04:25:50;99466.31;;;-0.32;68.88
67842;BME280;54642;59.126;37.876;2023-03-22T04:28:27;99463.75;;;-0.34;68.85
67842;BME280;54642;59.126;37.876;2023-03-22T04:30:53;99474.16;;;-0.26;68.60
67842;BME280;54642;59.126;37.876;2023-03-22T04:33:54;99475.06;;;-0.24;68.35
67842;BME280;54642;59.126;37.876;2023-03-22T04:36:32;99451.50;;;-0.46;68.36
67842;BME280;54642;59.126;37.876;2023-03-22T04:39:23;99485.50;;;-0.15;68.24
67842;BME280;54642;59.126;37.876;2023-03-22T04:41:58;99507.03;;;-0.04;68.30
67842;BME280;54642;59.126;37.876;2023-03-22T04:44:24;99510.63;;;0.03;68.17
67842;BME280;54642;59.126;37.876;2023-03-22T04:46:51;99502.22;;;0.06;68.15
67842;BME280;54642;59.126;37.876;2023-03-22T04:49:17;99506.56;;;0.10;68.10
67842;BME280;54642;59.126;37.876;2023-03-22T04:51:43;99490.19;;;0.00;67.88
67842;BME280;54642;59.126;37.876;2023-03-22T04:54:25;99495.09;;;0.24;67.90
67842;BME280;54642;59.126;37.876;2023-03-22T04:56:50;99508.16;;;0.36;67.79
67842;BME280;54642;59.126;37.876;2023-03-22T04:59:19;99509.97;;;0.41;67.53
67842;BME280;54642;59.126;37.876;2023-03-22T05:01:47;99496.38;;;0.40;67.60
67842;BME280;54642;59.126;37.876;2023-03-22T05:04:18;99498.97;;;0.42;67.42
67842;BME280;54642;59.126;37.876;2023-03-22T05:06:45;99515.41;;;0.53;67.49
67842;BME280;54642;59.126;37.876;2023-03-22T05:09:23;99509.50;;;0.54;67.34
67842;BME280;54642;59.126;37.876;2023-03-22T05:11:50;99498.34;;;0.52;67.38
67842;BME280;54642;59.126;37.876;2023-03-22T05:14:23;99520.19;;;0.74;66.94
67842;BME280;54642;59.126;37.876;2023-03-22T05:16:49;99519.41;;;0.76;66.87
67842;BME280;54642;59.126;37.876;2023-03-22T05:19:15;99511.44;;;0.64;66.98
67842;BME280;54642;59.126;37.876;2023-03-22T05:21:47;99481.47;;;0.55;67.19
67842;BME280;54642;59.126;37.876;2023-03-22T05:24:13;99522.28;;;0.89;66.83
67842;BME280;54642;59.126;37.876;2023-03-22T05:26:43;99520.66;;;0.92;66.77
67842;BME280;54642;59.126;37.876;2023-03-22T05:29:11;99456.94;;;0.61;66.72
67842;BME280;54642;59.126;37.876;2023-03-22T05:32:03;99533.09;;;1.13;66.19
67842;BME280;54642;59.126;37.876;2023-03-22T05:34:29;99536.59;;;1.17;66.38
67842;BME280;54642;59.126;37.876;2023-03-22T05:37:05;99543.56;;;1.24;66.43
67842;BME280;54642;59.126;37.876;2023-03-22T05:39:43;99504.91;;;1.09;66.19
67842;BME280;54642;59.126;37.876;2023-03-22T05:42:09;99536.97;;;1.34;66.27
67842;BME280;54642;59.126;37.876;2023-03-22T05:44:35;99536.88;;;1.29;66.17
67842;BME280;54642;59.126;37.876;2023-03-22T05:47:08;99532.31;;;2.79;64.39
67842;BME280;54642;59.126;37.876;2023-03-22T05:49:38;99495.53;;;4.58;59.64
67842;BME280;54642;59.126;37.876;2023-03-22T05:52:04;99512.13;;;6.23;55.43
67842;BME280;54642;59.126;37.876;2023-03-22T05:55:04;99508.81;;;6.57;53.84
67842;BME280;54642;59.126;37.876;2023-03-22T05:57:31;99518.09;;;6.11;54.27
67842;BME280;54642;59.126;37.876;2023-03-22T05:59:58;99537.38;;;5.45;55.61
67842;BME280;54642;59.126;37.876;2023-03-22T06:02:39;99522.53;;;4.24;57.68
67842;BME280;54642;59.126;37.876;2023-03-22T06:05:06;99551.41;;;3.50;60.00
67842;BME280;54642;59.126;37.876;2023-03-22T06:07:33;99542.94;;;3.02;61.34
67842;BME280;54642;59.126;37.876;2023-03-22T06:10:13;99550.75;;;2.61;62.71
67842;BME280;54642;59.126;37.876;2023-03-22T06:12:39;99537.50;;;2.38;63.06
67842;BME280;54642;59.126;37.876;2023-03-22T06:15:11;99547.47;;;2.24;63.44
67842;BME280;54642;59.126;37.876;2023-03-22T06:17:46;99562.84;;;2.25;63.65
67842;BME280;54642;59.126;37.876;2023-03-22T06:20:17;99557.63;;;2.21;63.67
67842;BME280;54642;59.126;37.876;2023-03-22T06:22:50;99568.03;;;2.30;63.69
67842;BME280;54642;59.126;37.876;2023-03-22T06:25:16;99559.63;;;2.36;63.67
67842;BME280;54642;59.126;37.876;2023-03-22T06:27:44;99561.38;;;2.37;63.66
67842;BME280;54642;59.126;37.876;2023-03-22T06:30:10;99564.81;;;2.39;63.68
67842;BME280;54642;59.126;37.876;2023-03-22T06:32:54;99564.06;;;2.44;63.70
67842;BME280;54642;59.126;37.876;2023-03-22T06:35:22;99521.00;;;2.20;63.46
67842;BME280;54642;59.126;37.876;2023-03-22T06:37:48;99555.63;;;2.47;63.49
67842;BME280;54642;59.126;37.876;2023-03-22T06:40:14;99559.22;;;2.58;63.46
67842;BME280;54642;59.126;37.876;2023-03-22T06:42:40;99567.97;;;2.70;63.29
67842;BME280;54642;59.126;37.876;2023-03-22T06:45:10;99543.16;;;2.65;63.04
67842;BME280;54642;59.126;37.876;2023-03-22T06:47:43;99562.28;;;2.84;63.21
67842;BME280;54642;59.126;37.876;2023-03-22T06:50:15;99543.34;;;2.75;62.85
67842;BME280;54642;59.126;37.876;2023-03-22T06:53:01;99564.94;;;2.91;62.62
67842;BME280;54642;59.126;37.876;2023-03-22T06:55:27;99560.81;;;2.97;62.87
67842;BME280;54642;59.126;37.876;2023-03-22T06:57:53;99561.06;;;3.13;62.55
67842;BME280;54642;59.126;37.876;2023-03-22T07:00:19;99559.47;;;3.19;62.67
67842;BME280;54642;59.126;37.876;2023-03-22T07:02:45;99575.69;;;3.18;62.32
67842;BME280;54642;59.126;37.876;2023-03-22T07:05:26;99549.88;;;3.06;61.88
67842;BME280;54642;59.126;37.876;2023-03-22T07:07:51;99567.25;;;3.24;62.15
67842;BME280;54642;59.126;37.876;2023-03-22T07:10:18;99557.69;;;3.15;61.82
67842;BME280;54642;59.126;37.876;2023-03-22T07:12:43;99558.66;;;3.20;61.81
67842;BME280;54642;59.126;37.876;2023-03-22T07:15:13;99585.53;;;3.47;61.78
67842;BME280;54642;59.126;37.876;2023-03-22T07:18:02;99582.22;;;3.53;61.13
67842;BME280;54642;59.126;37.876;2023-03-22T07:20:28;99573.75;;;3.58;61.45
67842;BME280;54642;59.126;37.876;2023-03-22T07:22:55;99574.81;;;3.73;61.12
67842;BME280;54642;59.126;37.876;2023-03-22T07:25:23;99579.28;;;3.85;60.88
67842;BME280;54642;59.126;37.876;2023-03-22T07:27:59;99592.13;;;3.88;60.52
67842;BME280;54642;59.126;37.876;2023-03-22T07:30:26;99527.44;;;3.44;60.57
67842;BME280;54642;59.126;37.876;2023-03-22T07:32:52;99587.81;;;3.84;60.19
67842;BME280;54642;59.126;37.876;2023-03-22T07:35:19;99582.66;;;3.84;59.97
67842;BME280;54642;59.126;37.876;2023-03-22T07:37:46;99601.69;;;3.98;60.26
67842;BME280;54642;59.126;37.876;2023-03-22T07:40:21;99586.53;;;4.16;60.19
67842;BME280;54642;59.126;37.876;2023-03-22T07:42:50;99546.09;;;3.94;59.52
67842;BME280;54642;59.126;37.876;2023-03-22T07:45:33;99598.66;;;4.27;59.40
67842;BME280;54642;59.126;37.876;2023-03-22T07:48:18;99596.97;;;4.30;59.46
67842;BME280;54642;59.126;37.876;2023-03-22T07:50:55;99583.16;;;4.17;59.61
67842;BME280;54642;59.126;37.876;2023-03-22T07:53:22;99603.78;;;4.27;59.65
67842;BME280;54642;59.126;37.876;2023-03-22T07:55:48;99603.06;;;4.37;59.57
67842;BME280;54642;59.126;37.876;2023-03-22T07:58:14;99601.53;;;4.51;59.43
67842;BME280;54642;59.126;37.876;2023-03-22T08:00:40;99535.41;;;4.29;59.19
67842;BME280;54642;59.126;37.876;2023-03-22T08:03:24;99594.91;;;4.72;58.65
67842;BME280;54642;59.126;37.876;2023-03-22T08:06:10;99592.28;;;4.66;58.39
67842;BME280;54642;59.126;37.876;2023-03-22T08:08:37;99597.47;;;4.70;58.19
67842;BME280;54642;59.126;37.876;2023-03-22T08:11:05;99595.81;;;4.74;57.99
67842;BME280;54642;59.126;37.876;2023-03-22T08:13:31;99577.75;;;4.68;58.12
67842;BME280;54642;59.126;37.876;2023-03-22T08:15:57;99564.00;;;4.63;57.96
67842;BME280;54642;59.126;37.876;2023-03-22T08:18:23;99594.19;;;4.82;57.71
67842;BME280;54642;59.126;37.876;2023-03-22T08:20:53;99606.28;;;4.92;57.74
67842;BME280;54642;59.126;37.876;2023-03-22T08:23:19;99599.47;;;4.96;57.50
67842;BME280;54642;59.126;37.876;2023-03-22T08:26:11;99510.75;;;4.42;57.50
67842;BME280;54642;59.126;37.876;2023-03-22T08:28:37;99587.47;;;4.95;57.31
67842;BME280;54642;59.126;37.876;2023-03-22T08:31:12;99606.44;;;5.06;56.84
67842;BME280;54642;59.126;37.876;2023-03-22T08:33:39;99618.41;;;5.07;56.91
67842;BME280;54642;59.126;37.876;2023-03-22T08:36:07;99617.56;;;5.07;56.68
67842;BME280;54642;59.126;37.876;2023-03-22T08:38:40;99544.34;;;4.65;56.70
67842;BME280;54642;59.126;37.876;2023-03-22T08:41:07;99608.09;;;5.03;56.84
67842;BME280;54642;59.126;37.876;2023-03-22T08:43:33;99608.97;;;5.05;56.68
67842;BME280;54642;59.126;37.876;2023-03-22T08:45:59;99606.41;;;5.05;56.80
67842;BME280;54642;59.126;37.876;2023-03-22T08:48:25;99599.56;;;5.05;56.68
67842;BME280;54642;59.126;37.876;2023-03-22T08:51:17;99613.34;;;5.15;56.56
67842;BME280;54642;59.126;37.876;2023-03-22T08:54:04;99608.22;;;5.16;56.56
67842;BME280;54642;59.126;37.876;2023-03-22T08:56:56;99609.09;;;5.19;56.32
67842;BME280;54642;59.126;37.876;2023-03-22T08:59:49;99589.41;;;5.19;56.23
67842;BME280;54642;59.126;37.876;2023-03-22T09:02:19;99615.22;;;5.34;56.15
67842;BME280;54642;59.126;37.876;2023-03-22T09:04:46;99619.53;;;5.35;55.96
67842;BME280;54642;59.126;37.876;2023-03-22T09:07:12;99608.44;;;5.37;55.80
67842;BME280;54642;59.126;37.876;2023-03-22T09:09:40;99605.81;;;5.32;55.56
67842;BME280;54642;59.126;37.876;2023-03-22T09:12:07;99611.88;;;5.42;55.30
67842;BME280;54642;59.126;37.876;2023-03-22T09:14:34;99608.41;;;5.38;55.12
67842;BME280;54642;59.126;37.876;2023-03-22T09:17:02;99606.75;;;5.45;55.49
67842;BME280;54642;59.126;37.876;2023-03-22T09:19:28;99613.63;;;5.46;54.77
67842;BME280;54642;59.126;37.876;2023-03-22T09:21:54;99605.09;;;5.50;54.94
67842;BME280;54642;59.126;37.876;2023-03-22T09:24:31;99596.47;;;5.45;54.78
67842;BME280;54642;59.126;37.876;2023-03-22T09:27:00;99600.84;;;5.53;54.74
67842;BME280;54642;59.126;37.876;2023-03-22T09:29:26;99603.53;;;5.67;54.57
67842;BME280;54642;59.126;37.876;2023-03-22T09:31:52;99608.66;;;5.67;54.41
67842;BME280;54642;59.126;37.876;2023-03-22T09:34:29;99605.22;;;5.68;54.40
67842;BME280;54642;59.126;37.876;2023-03-22T09:36:56;99597.53;;;5.65;54.42
67842;BME280;54642;59.126;37.876;2023-03-22T09:39:26;99594.97;;;5.71;54.13
67842;BME280;54642;59.126;37.876;2023-03-22T09:41:57;99585.53;;;5.67;54.00
67842;BME280;54642;59.126;37.876;2023-03-22T09:44:40;99576.06;;;5.62;53.77
67842;BME280;54642;59.126;37.876;2023-03-22T09:47:16;99580.44;;;5.77;53.84
67842;BME280;54642;59.126;37.876;2023-03-22T09:49:47;99586.53;;;5.85;53.85
67842;BME280;54642;59.126;37.876;2023-03-22T09:52:16;99583.13;;;5.93;53.53
67842;BME280;54642;59.126;37.876;2023-03-22T09:54:44;99585.78;;;6.00;53.35
67842;BME280;54642;59.126;37.876;2023-03-22T10:10:41;99574.69;;;6.11;52.57
67842;BME280;54642;59.126;37.876;2023-03-22T10:13:34;99581.56;;;6.19;52.34
67842;BME280;54642;59.126;37.876;2023-03-22T10:16:11;99573.91;;;6.23;52.96
67842;BME280;54642;59.126;37.876;2023-03-22T10:18:42;99584.19;;;6.29;52.15
67842;BME280;54642;59.126;37.876;2023-03-22T10:21:13;99545.53;;;6.13;52.13
67842;BME280;54642;59.126;37.876;2023-03-22T10:24:03;99573.94;;;6.33;52.25
67842;BME280;54642;59.126;37.876;2023-03-22T10:26:39;99586.84;;;6.37;51.78
67842;BME280;54642;59.126;37.876;2023-03-22T10:29:33;99589.41;;;6.37;51.63
67842;BME280;54642;59.126;37.876;2023-03-22T10:34:40;99584.16;;;6.20;51.95
67842;BME280;54642;59.126;37.876;2023-03-22T10:37:12;99571.28;;;6.19;51.67
67842;BME280;54642;59.126;37.876;2023-03-22T10:39:43;99548.91;;;6.01;51.68
67842;BME280;54642;59.126;37.876;2023-03-22T10:42:15;99575.63;;;6.24;51.40
67842;BME280;54642;59.126;37.876;2023-03-22T10:45:12;99578.25;;;6.38;51.31
67842;BME280;54642;59.126;37.876;2023-03-22T10:47:52;99567.97;;;6.37;51.32
67842;BME280;54642;59.126;37.876;2023-03-22T10:50:29;99566.28;;;6.46;51.21
67842;BME280;54642;59.126;37.876;2023-03-22T10:55:51;99578.31;;;6.60;50.98
67842;BME280;54642;59.126;37.876;2023-03-22T10:58:22;99570.63;;;6.63;51.09
67842;BME280;54642;59.126;37.876;2023-03-22T11:00:56;99571.47;;;6.66;51.05
67842;BME280;54642;59.126;37.876;2023-03-22T11:06:07;99568.06;;;6.69;51.00
67842;BME280;54642;59.126;37.876;2023-03-22T11:08:59;99506.22;;;6.43;51.02
67842;BME280;54642;59.126;37.876;2023-03-22T11:12:07;99558.66;;;6.79;50.64
67842;BME280;54642;59.126;37.876;2023-03-22T11:14:43;99544.91;;;6.75;50.67
67842;BME280;54642;59.126;37.876;2023-03-22T11:17:18;99556.13;;;6.94;50.65
67842;BME280;54642;59.126;37.876;2023-03-22T11:19:56;99465.03;;;6.46;50.69
67842;BME280;54642;59.126;37.876;2023-03-22T11:25:01;99545.81;;;7.05;50.21
67842;BME280;54642;59.126;37.876;2023-03-22T11:27:32;99549.25;;;7.13;50.24
67842;BME280;54642;59.126;37.876;2023-03-22T11:30:26;99552.69;;;7.12;50.26
67842;BME280;54642;59.126;37.876;2023-03-22T11:35:29;99537.22;;;6.91;50.31
67842;BME280;54642;59.126;37.876;2023-03-22T11:37:56;99550.97;;;6.93;50.17
67842;BME280;54642;59.126;37.876;2023-03-22T11:40:25;99536.34;;;7.01;50.26
67842;BME280;54642;59.126;37.876;2023-03-22T11:42:55;99447.00;;;6.51;50.30
67842;BME280;54642;59.126;37.876;2023-03-22T11:45:27;99557.00;;;6.99;50.39
67842;BME280;54642;59.126;37.876;2023-03-22T11:48:13;99542.34;;;6.84;50.24
67842;BME280;54642;59.126;37.876;2023-03-22T11:50:42;99536.31;;;6.75;50.37
67842;BME280;54642;59.126;37.876;2023-03-22T11:53:15;99532.03;;;6.78;50.57
67842;BME280;54642;59.126;37.876;2023-03-22T11:55:43;99534.63;;;6.94;50.87
67842;BME280;54642;59.126;37.876;2023-03-22T11:58:27;99529.50;;;7.11;50.38
67842;BME280;54642;59.126;37.876;2023-03-22T12:00:56;99534.66;;;7.24;50.43
67842;BME280;54642;59.126;37.876;2023-03-22T12:03:28;99538.09;;;7.47;50.29
67842;BME280;54642;59.126;37.876;2023-03-22T12:05:56;99530.38;;;7.50;49.85
67842;BME280;54642;59.126;37.876;2023-03-22T12:08:45;99537.22;;;7.64;49.66
67842;BME280;54642;59.126;37.876;2023-03-22T12:11:15;99520.00;;;7.70;50.34
67842;BME280;54642;59.126;37.876;2023-03-22T12:16:27;99520.91;;;7.49;49.61
67842;BME280;54642;59.126;37.876;2023-03-22T12:19:12;99488.25;;;7.17;49.41
67842;BME280;54642;59.126;37.876;2023-03-22T12:21:42;99472.81;;;7.07;49.65
67842;BME280;54642;59.126;37.876;2023-03-22T12:24:27;99532.09;;;7.34;49.38
67842;BME280;54642;59.126;37.876;2023-03-22T12:26:59;99526.94;;;7.37;49.40
67842;BME280;54642;59.126;37.876;2023-03-22T12:29:29;99512.31;;;7.50;49.38
67842;BME280;54642;59.126;37.876;2023-03-22T12:32:04;99514.84;;;7.67;49.35
67842;BME280;54642;59.126;37.876;2023-03-22T12:34:38;99509.66;;;7.83;48.78
67842;BME280;54642;59.126;37.876;2023-03-22T12:37:07;99503.63;;;7.88;48.71
67842;BME280;54642;59.126;37.876;2023-03-22T12:39:41;99512.25;;;7.82;48.56
67842;BME280;54642;59.126;37.876;2023-03-22T12:42:35;99474.50;;;7.52;48.85
67842;BME280;54642;59.126;37.876;2023-03-22T12:45:23;99502.81;;;7.75;48.93
67842;BME280;54642;59.126;37.876;2023-03-22T12:50:58;99516.59;;;7.57;48.83
67842;BME280;54642;59.126;37.876;2023-03-22T12:53:29;99507.16;;;7.51;48.95
67842;BME280;54642;59.126;37.876;2023-03-22T12:55:58;99510.59;;;7.47;49.09
67842;BME280;54642;59.126;37.876;2023-03-22T12:58:26;99502.84;;;7.55;49.07
67842;BME280;54642;59.126;37.876;2023-03-22T13:00:55;99488.22;;;7.61;48.99
67842;BME280;54642;59.126;37.876;2023-03-22T13:03:37;99488.19;;;7.74;49.02
67842;BME280;54642;59.126;37.876;2023-03-22T13:06:27;99493.34;;;7.80;48.76
67842;BME280;54642;59.126;37.876;2023-03-22T13:09:13;99497.63;;;7.82;48.85
67842;BME280;54642;59.126;37.876;2023-03-22T13:11:45;99492.44;;;7.96;48.87
67842;BME280;54642;59.126;37.876;2023-03-22T13:27:49;99473.63;;;7.57;48.64
67842;BME280;54642;59.126;37.876;2023-03-22T13:33:39;99477.06;;;7.53;49.00
67842;BME280;54642;59.126;37.876;2023-03-22T13:36:04;99447.91;;;7.25;48.60
67842;BME280;54642;59.126;37.876;2023-03-22T13:38:34;99472.78;;;7.44;49.61
67842;BME280;54642;59.126;37.876;2023-03-22T13:41:19;99375.81;;;6.80;49.23
67842;BME280;54642;59.126;37.876;2023-03-22T13:43:54;99425.59;;;7.07;49.42
67842;BME280;54642;59.126;37.876;2023-03-22T14:01:41;99452.13;;;7.57;49.01
67842;BME280;54642;59.126;37.876;2023-03-22T14:04:24;99455.56;;;7.60;48.95
67842;BME280;54642;59.126;37.876;2023-03-22T14:06:56;99456.44;;;7.53;48.95
67842;BME280;54642;59.126;37.876;2023-03-22T14:09:57;99446.09;;;7.59;49.05
67842;BME280;54642;59.126;37.876;2023-03-22T14:15:00;99453.00;;;7.57;48.95
67842;BME280;54642;59.126;37.876;2023-03-22T14:17:30;99455.56;;;7.57;49.03
67842;BME280;54642;59.126;37.876;2023-03-22T14:19:59;99447.88;;;7.51;49.04
67842;BME280;54642;59.126;37.876;2023-03-22T14:22:35;99410.94;;;7.29;48.94
67842;BME280;54642;59.126;37.876;2023-03-22T14:25:04;99456.44;;;7.50;49.15
67842;BME280;54642;59.126;37.876;2023-03-22T14:27:35;99453.00;;;7.47;48.95
67842;BME280;54642;59.126;37.876;2023-03-22T14:30:02;99449.56;;;7.49;49.01
67842;BME280;54642;59.126;37.876;2023-03-22T14:32:29;99444.41;;;7.54;49.51
67842;BME280;54642;59.126;37.876;2023-03-22T14:35:05;99443.53;;;7.56;49.51
67842;BME280;54642;59.126;37.876;2023-03-22T14:37:33;99444.41;;;7.58;49.36
67842;BME280;54642;59.126;37.876;2023-03-22T14:39:58;99430.59;;;7.69;49.58
67842;BME280;54642;59.126;37.876;2023-03-22T14:42:27;99426.31;;;7.66;49.45
67842;BME280;54642;59.126;37.876;2023-03-22T14:44:57;99438.34;;;7.72;49.07
67842;BME280;54642;59.126;37.876;2023-03-22T14:47:32;99434.91;;;7.63;49.16
67842;BME280;54642;59.126;37.876;2023-03-22T14:50:08;99432.31;;;7.68;49.23
67842;BME280;54642;59.126;37.876;2023-03-22T14:52:35;99421.19;;;7.58;49.13
67842;BME280;54642;59.126;37.876;2023-03-22T14:55:06;99419.47;;;7.53;49.04
67842;BME280;54642;59.126;37.876;2023-03-22T14:57:36;99424.63;;;7.53;49.11
67842;BME280;54642;59.126;37.876;2023-03-22T15:00:10;99409.19;;;7.43;48.99
67842;BME280;54642;59.126;37.876;2023-03-22T15:02:58;99410.06;;;7.39;49.22
67842;BME280;54642;59.126;37.876;2023-03-22T15:05:27;99386.06;;;7.17;49.31